Time;durP1;ratioP1;P1;durP2;ratioP2;P2;SDS_P1;SDS_P2;PMS_P1;PMS_P2;Temp;Humidity;BMP_temperature;BMP_pressure;BME280_temperature;BME280_humidity;BME280_pressure;Samples;Min_cycle;Max_cycle;Signal;HPM_P1;HPM_P2
2024/03/21 00:00:32;;;;;;;12.57;9.13;;;;;;;6.39;100.00;101103.25;5028043;28;20413;-70
2024/03/21 00:02:58;;;;;;;12.82;8.85;;;;;;;6.85;100.00;101186.09;5027908;28;20030;-69
2024/03/21 00:05:26;;;;;;;13.65;8.93;;;;;;;6.87;100.00;101190.31;5009686;28;20510;-73
2024/03/21 00:07:52;;;;;;;13.02;9.27;;;;;;;6.53;100.00;101063.78;5028089;28;20044;-70
2024/03/21 00:10:19;;;;;;;11.20;9.38;;;;;;;6.86;100.00;101147.34;5027934;28;20038;-70
2024/03/21 00:12:46;;;;;;;12.52;9.68;;;;;;;6.90;100.00;101176.84;5027076;28;20462;-69
2024/03/21 00:15:12;;;;;;;12.93;9.65;;;;;;;6.87;100.00;101144.81;5028067;28;20033;-69
2024/03/21 00:17:39;;;;;;;14.98;9.43;;;;;;;6.96;100.00;101175.22;5027960;28;20498;-70
2024/03/21 00:20:10;;;;;;;13.65;10.35;;;;;;;7.14;100.00;101112.94;5008926;28;20041;-70
2024/03/21 00:22:37;;;;;;;14.20;11.02;;;;;;;7.08;100.00;101139.03;5027381;28;20446;-69
2024/03/21 00:25:03;;;;;;;15.27;10.90;;;;;;;6.88;100.00;101186.97;5011227;28;20072;-71
2024/03/21 00:27:30;;;;;;;16.00;10.57;;;;;;;6.80;100.00;101081.59;5014106;28;20041;-69
2024/03/21 00:29:55;;;;;;;17.65;12.13;;;;;;;7.11;100.00;101123.06;5031138;28;20108;-69
2024/03/21 00:32:21;;;;;;;19.42;13.32;;;;;;;7.01;100.00;101145.75;5013423;28;20192;-69
2024/03/21 00:34:46;;;;;;;15.85;11.93;;;;;;;7.05;100.00;101151.69;5030896;28;20037;-70
2024/03/21 00:37:12;;;;;;;16.58;12.50;;;;;;;6.85;100.00;101168.41;5031041;28;20033;-69
2024/03/21 00:39:41;;;;;;;16.58;12.00;;;;;;;6.94;100.00;101110.31;5031119;28;20037;-69
2024/03/21 00:42:06;;;;;;;16.58;11.50;;;;;;;6.54;100.00;101187.53;5030572;28;20097;-71
2024/03/21 00:44:32;;;;;;;17.10;11.60;;;;;;;6.37;100.00;101117.53;5031286;28;20041;-69
2024/03/21 00:46:57;;;;;;;14.65;12.10;;;;;;;5.91;100.00;101073.41;5013371;28;20072;-69
2024/03/21 00:49:23;;;;;;;18.27;11.40;;;;;;;5.85;100.00;101071.69;5029920;28;20505;-69
2024/03/21 00:51:48;;;;;;;14.13;10.60;;;;;;;6.55;100.00;101123.59;5030797;28;20450;-69
2024/03/21 00:54:13;;;;;;;16.42;10.30;;;;;;;6.72;100.00;101114.41;5012179;28;20057;-70
2024/03/21 00:56:39;;;;;;;13.18;10.52;;;;;;;5.54;100.00;100882.22;5013483;28;20498;-73
2024/03/21 00:59:05;;;;;;;12.90;10.48;;;;;;;6.07;100.00;100944.84;5013210;28;22072;-70
2024/03/21 01:01:31;;;;;;;12.40;10.40;;;;;;;6.53;100.00;101089.03;5013641;28;20076;-70
2024/03/21 01:04:00;;;;;;;14.57;10.10;;;;;;;7.00;100.00;101012.63;5012663;28;20506;-70
2024/03/21 01:06:26;;;;;;;13.68;9.93;;;;;;;7.07;100.00;100985.69;5030822;28;20406;-70
2024/03/21 01:08:51;;;;;;;12.80;9.80;;;;;;;6.81;100.00;100954.44;5012357;28;20117;-71
2024/03/21 01:11:17;;;;;;;18.33;11.98;;;;;;;7.11;100.00;101011.81;5030506;28;20029;-69
2024/03/21 01:13:42;;;;;;;17.60;11.73;;;;;;;6.82;100.00;100974.63;5028748;28;20025;-70
2024/03/21 01:16:08;;;;;;;16.15;10.70;;;;;;;6.53;100.00;100894.53;5030327;28;20134;-70
2024/03/21 01:18:37;;;;;;;14.85;10.02;;;;;;;6.92;100.00;100976.38;5029792;28;20056;-73
2024/03/21 01:21:05;;;;;;;16.08;12.50;;;;;;;7.01;100.00;100971.31;5012374;28;20045;-69
2024/03/21 01:23:31;;;;;;;14.93;11.05;;;;;;;6.43;100.00;100901.25;5012042;28;20025;-70
2024/03/21 01:25:57;;;;;;;14.90;11.73;;;;;;;7.06;100.00;100947.72;5011821;28;20061;-71
2024/03/21 01:28:22;;;;;;;14.35;11.80;;;;;;;6.78;100.00;100970.41;5030120;28;20112;-69
2024/03/21 01:30:48;;;;;;;13.18;10.38;;;;;;;6.45;100.00;100843.16;5012105;28;20026;-73
2024/03/21 01:33:13;;;;;;;12.70;9.50;;;;;;;7.05;100.00;100949.44;5029074;28;20029;-70
2024/03/21 01:35:39;;;;;;;12.32;9.05;;;;;;;6.93;100.00;100892.09;5012010;28;20032;-69
2024/03/21 01:38:05;;;;;;;11.80;9.60;;;;;;;6.95;100.00;100938.44;5012173;28;20045;-69
2024/03/21 01:40:30;;;;;;;10.48;8.82;;;;;;;7.05;100.00;100944.38;5012225;28;20037;-69
2024/03/21 01:42:56;;;;;;;12.10;9.68;;;;;;;6.63;100.00;100845.75;5029981;28;20438;-70
2024/03/21 01:45:22;;;;;;;13.05;8.25;;;;;;;5.69;100.00;100731.84;5030410;28;20048;-69
2024/03/21 01:47:48;;;;;;;10.55;8.38;;;;;;;6.16;100.00;100849.81;5029236;28;20034;-70
2024/03/21 01:50:13;;;;;;;11.85;8.75;;;;;;;6.56;100.00;100775.81;5012133;28;20087;-71
2024/03/21 01:52:41;;;;;;;12.52;8.98;;;;;;;7.11;100.00;100915.72;5029201;28;20038;-69
2024/03/21 01:55:07;;;;;;;12.75;9.82;;;;;;;6.75;100.00;100863.44;5011927;28;20102;-70
2024/03/21 01:57:35;;;;;;;11.60;9.32;;;;;;;6.22;100.00;100810.28;5011926;28;20115;-70
2024/03/21 02:00:01;;;;;;;11.63;8.82;;;;;;;6.63;100.00;100952.69;5029186;28;20036;-74
2024/03/21 02:02:26;;;;;;;14.57;10.38;;;;;;;6.35;100.00;100960.97;5029699;28;20041;-69
2024/03/21 02:04:52;;;;;;;13.60;11.07;;;;;;;6.39;100.00;100931.53;5011324;28;20037;-69
2024/03/21 02:07:18;;;;;;;12.93;11.00;;;;;;;5.95;100.00;100805.13;5030239;28;20041;-70
2024/03/21 02:09:49;;;;;;;14.98;11.50;;;;;;;6.45;100.00;100909.69;5029028;28;20064;-70
2024/03/21 02:12:34;;;;;;;14.48;10.68;;;;;;;6.86;100.00;100859.25;5029454;28;20423;-72
2024/03/21 02:15:01;;;;;;;14.35;11.43;;;;;;;7.00;100.00;100835.69;5020382;28;20036;-71
2024/03/21 02:17:26;;;;;;;13.82;10.68;;;;;;;6.69;100.00;100851.66;5029137;28;20044;-71
2024/03/21 02:19:51;;;;;;;14.77;11.35;;;;;;;6.79;100.00;100842.41;5028121;28;20426;-69
2024/03/21 02:22:35;;;;;;;15.05;11.25;;;;;;;6.54;100.00;100881.91;5029361;28;20083;-70
2024/03/21 02:25:04;;;;;;;18.67;13.00;;;;;;;6.44;100.00;100838.97;5028907;28;20055;-71
2024/03/21 02:27:31;;;;;;;28.65;19.50;;;;;;;6.43;100.00;100868.44;5028114;28;20589;-70
2024/03/21 02:29:57;;;;;;;19.10;12.57;;;;;;;6.47;100.00;100837.28;5027085;28;20037;-70
2024/03/21 02:32:22;;;;;;;17.85;12.27;;;;;;;5.70;100.00;100725.13;5028657;28;20036;-71
2024/03/21 02:34:48;;;;;;;16.63;12.60;;;;;;;6.33;100.00;100850.69;5031485;28;20116;-70
2024/03/21 02:37:14;;;;;;;22.65;14.25;;;;;;;5.80;100.00;100731.88;5012644;28;20025;-70
2024/03/21 02:39:39;;;;;;;14.90;10.77;;;;;;;6.57;100.00;100801.13;5028414;28;20022;-71
2024/03/21 02:42:05;;;;;;;18.48;11.57;;;;;;;6.14;100.00;100716.00;5029251;28;20040;-70
2024/03/21 02:44:30;;;;;;;14.23;9.82;;;;;;;6.41;100.00;100823.78;5028740;28;20062;-68
2024/03/21 02:46:57;;;;;;;14.65;10.07;;;;;;;6.96;100.00;100752.25;5028148;28;20553;-69
2024/03/21 02:49:22;;;;;;;13.60;8.88;;;;;;;6.27;100.00;100700.06;5027354;28;20505;-70
2024/03/21 02:51:48;;;;;;;16.52;9.90;;;;;;;6.45;100.00;100795.19;5011076;28;20030;-72
2024/03/21 02:54:14;;;;;;;13.38;9.43;;;;;;;6.06;100.00;100814.44;5010841;28;20041;-71
2024/03/21 02:56:40;;;;;;;12.25;8.98;;;;;;;5.99;100.00;100759.75;5028343;28;20029;-69
2024/03/21 02:59:05;;;;;;;12.73;9.45;;;;;;;6.17;100.00;100705.09;5010174;28;20486;-70
2024/03/21 03:01:30;;;;;;;12.25;9.73;;;;;;;5.59;100.00;100630.91;5010840;28;20462;-69
2024/03/21 03:03:56;;;;;;;14.15;9.98;;;;;;;6.27;100.00;100730.34;5028004;28;20450;-70
2024/03/21 03:06:21;;;;;;;12.02;9.68;;;;;;;5.40;100.00;100621.63;5028677;28;20037;-70
2024/03/21 03:08:47;;;;;;;14.52;10.65;;;;;;;5.94;100.00;100755.53;5030075;28;20037;-69
2024/03/21 03:11:12;;;;;;;14.30;10.48;;;;;;;6.00;100.00;100710.13;5010029;28;20120;-69
2024/03/21 03:13:37;;;;;;;13.50;10.25;;;;;;;5.94;100.00;100694.97;5028246;28;20439;-70
2024/03/21 03:16:03;;;;;;;14.82;11.07;;;;;;;5.87;100.00;100683.16;5014993;28;20057;-69
2024/03/21 03:18:29;;;;;;;14.75;10.77;;;;;;;5.77;100.00;100646.09;5010700;28;20029;-71
2024/03/21 03:20:54;;;;;;;14.77;10.40;;;;;;;5.56;100.00;100545.19;5027966;28;20109;-71
2024/03/21 03:23:22;;;;;;;14.50;10.20;;;;;;;4.89;100.00;100398.09;5029157;28;20446;-73
2024/03/21 03:25:47;;;;;;;18.73;11.60;;;;;;;5.32;100.00;100477.09;5027445;28;20526;-70
2024/03/21 03:28:12;;;;;;;17.33;11.70;;;;;;;5.94;100.00;100587.28;5027839;28;20112;-68
2024/03/21 03:30:38;;;;;;;17.60;11.85;;;;;;;5.97;100.00;100572.16;5027266;28;20033;-69
2024/03/21 03:35:33;;;;;;;15.07;11.52;;;;;;;4.61;100.00;100367.00;5028344;28;20403;-70
2024/03/21 03:35:52;;;;;;;19.35;12.65;;;;;;;5.77;100.00;100514.94;5028223;28;20080;-70
2024/03/21 03:38:18;;;;;;;16.42;12.05;;;;;;;5.18;100.00;100510.69;5028102;28;20053;-70
2024/03/21 03:40:44;;;;;;;14.02;11.65;;;;;;;4.56;100.00;100393.81;5028230;28;20120;-70
2024/03/21 03:43:10;;;;;;;16.90;11.90;;;;;;;5.69;100.00;100547.72;5028040;28;20057;-69
2024/03/21 03:45:35;;;;;;;17.23;11.52;;;;;;;5.19;100.00;100477.06;5010168;28;20108;-74
2024/03/21 03:48:01;;;;;;;16.17;12.02;;;;;;;4.88;100.00;100382.13;5027171;28;20033;-70
2024/03/21 03:50:26;;;;;;;19.02;12.95;;;;;;;4.74;100.00;100481.16;5027326;28;20557;-69
2024/03/21 03:52:51;;;;;;;19.17;14.05;;;;;;;5.79;100.00;100559.50;5026919;28;20045;-75
2024/03/21 03:55:17;;;;;;;22.67;16.10;;;;;;;5.25;100.00;100461.97;5027454;28;20072;-71
2024/03/21 03:57:42;;;;;;;30.45;19.83;;;;;;;5.09;100.00;100429.22;5027546;28;20498;-70
2024/03/21 04:00:10;;;;;;;29.77;20.58;;;;;;;5.97;100.00;100515.81;5030535;28;20514;-70
2024/03/21 04:02:37;;;;;;;28.20;18.52;;;;;;;5.93;100.00;100488.91;5031539;28;20550;-71
2024/03/21 04:05:07;;;;;;;33.33;21.75;;;;;;;6.16;100.00;100474.53;5032067;28;20040;-72
2024/03/21 04:07:33;;;;;;;32.55;20.25;;;;;;;6.03;100.00;100493.94;5031353;28;20052;-70
2024/03/21 04:09:59;;;;;;;28.67;20.13;;;;;;;5.88;100.00;100503.22;5013534;28;20037;-69
2024/03/21 04:12:24;;;;;;;23.42;15.43;;;;;;;5.41;100.00;100462.81;5030489;28;20104;-70
2024/03/21 04:14:52;;;;;;;21.60;14.68;;;;;;;5.74;100.00;100493.09;5013289;28;20172;-69
2024/03/21 04:17:18;;;;;;;21.02;15.77;;;;;;;5.68;100.00;100525.03;5029613;28;20033;-69
2024/03/21 04:19:44;;;;;;;24.67;17.25;;;;;;;4.48;100.00;100448.31;5013897;28;20411;-70
2024/03/21 04:22:09;;;;;;;44.08;29.08;;;;;;;5.19;100.00;100524.09;5029513;28;20060;-69
2024/03/21 04:24:37;;;;;;;22.23;14.45;;;;;;;4.89;100.00;100436.69;5031439;28;20038;-71
2024/03/21 04:27:03;;;;;;;21.02;12.75;;;;;;;4.38;100.00;100422.28;5012310;28;20036;-69
2024/03/21 04:29:29;;;;;;;21.08;14.27;;;;;;;4.42;100.00;100470.94;5012523;28;20033;-70
2024/03/21 04:31:54;;;;;;;18.80;13.27;;;;;;;4.90;100.00;100521.50;5012089;28;20095;-74
2024/03/21 04:34:20;;;;;;;18.08;13.35;;;;;;;4.85;100.00;100528.19;5029807;28;20029;-71
2024/03/21 04:36:45;;;;;;;19.25;13.05;;;;;;;4.81;100.00;100526.53;5012177;28;20045;-69
2024/03/21 04:39:11;;;;;;;20.52;13.38;;;;;;;4.13;100.00;100438.13;5027731;28;21613;-70
2024/03/21 04:41:37;;;;;;;20.05;14.23;;;;;;;4.36;100.00;100405.50;5029940;28;20039;-70
2024/03/21 04:44:03;;;;;;;22.45;16.02;;;;;;;4.53;100.00;100570.03;5017197;28;20431;-69
2024/03/21 04:46:28;;;;;;;22.58;17.33;;;;;;;5.51;100.00;100330.03;5015484;28;20033;-69
2024/03/21 04:48:53;;;;;;;22.65;14.63;;;;;;;6.32;100.00;100405.50;5015593;28;20108;-70
2024/03/21 04:51:19;;;;;;;20.80;13.05;;;;;;;5.00;100.00;100513.16;5029314;28;20104;-69
2024/03/21 04:53:44;;;;;;;36.05;20.70;;;;;;;5.35;100.00;100467.03;5012230;28;20025;-72
2024/03/21 04:56:09;;;;;;;34.92;18.92;;;;;;;4.69;100.00;100362.81;5013483;28;20136;-69
2024/03/21 04:58:35;;;;;;;22.83;15.57;;;;;;;4.85;100.00;100429.97;5014538;28;20040;-69
2024/03/21 05:01:00;;;;;;;22.10;13.50;;;;;;;4.68;100.00;100425.72;5029080;28;20483;-68
2024/03/21 05:03:26;;;;;;;20.60;13.80;;;;;;;4.03;100.00;100455.66;5011873;28;20088;-69
2024/03/21 05:05:51;;;;;;;26.40;16.55;;;;;;;4.80;100.00;100529.03;5012250;28;20036;-69
2024/03/21 05:08:17;;;;;;;36.47;22.30;;;;;;;4.98;100.00;100489.63;5029231;28;20029;-67
2024/03/21 05:10:42;;;;;;;83.72;53.72;;;;;;;4.64;100.00;100356.91;5027143;28;20112;-68
2024/03/21 05:13:08;;;;;;;28.98;21.42;;;;;;;5.46;100.00;100440.13;5029154;28;20120;-69
2024/03/21 05:15:33;;;;;;;20.23;14.15;;;;;;;4.97;100.00;100465.25;5028079;28;20504;-68
2024/03/21 05:17:58;;;;;;;26.83;18.08;;;;;;;5.08;100.00;100422.47;5024942;28;20496;-68
2024/03/21 05:20:27;;;;;;;25.10;16.60;;;;;;;5.59;100.00;100444.31;5027855;28;20029;-69
2024/03/21 05:22:53;;;;;;;24.48;15.80;;;;;;;4.77;100.00;100318.34;5028181;28;20475;-67
2024/03/21 05:25:18;;;;;;;29.05;18.45;;;;;;;5.57;100.00;100444.34;5027876;28;20048;-68
2024/03/21 05:27:43;;;;;;;25.35;16.58;;;;;;;5.24;100.00;100467.00;5033564;28;20029;-70
2024/03/21 05:30:09;;;;;;;24.52;15.40;;;;;;;5.16;100.00;100252.81;5029353;28;20030;-68
2024/03/21 05:32:39;;;;;;;22.88;15.93;;;;;;;5.81;100.00;100244.19;5029275;28;20029;-70
2024/03/21 05:35:04;;;;;;;24.10;16.25;;;;;;;6.60;100.00;100356.56;5027882;28;20048;-71
2024/03/21 05:37:36;;;;;;;24.17;17.90;;;;;;;6.32;100.00;100390.34;5013347;28;20415;-73
2024/03/21 05:40:03;;;;;;;29.20;20.40;;;;;;;6.67;100.00;100365.78;5028293;28;20108;-69
2024/03/21 05:42:29;;;;;;;26.77;16.27;;;;;;;7.67;100.00;100273.88;5029006;28;20113;-73
2024/03/21 05:44:54;;;;;;;28.33;17.52;;;;;;;6.31;100.00;100196.84;5028629;28;20088;-79
2024/03/21 05:47:21;;;;;;;29.80;19.02;;;;;;;6.77;100.00;100212.47;5027492;28;20021;-71
2024/03/21 05:49:47;;;;;;;27.55;18.30;;;;;;;6.63;100.00;100379.28;5011893;28;20495;-70
2024/03/21 05:52:12;;;;;;;23.98;17.02;;;;;;;7.12;100.00;100320.81;5029106;28;20029;-71
2024/03/21 05:54:38;;;;;;;25.63;17.60;;;;;;;6.91;100.00;100314.25;5010873;28;20041;-71
2024/03/21 05:57:03;;;;;;;24.92;17.85;;;;;;;7.17;100.00;100289.56;5029123;28;20060;-70
2024/03/21 05:59:29;;;;;;;23.08;17.15;;;;;;;6.87;100.00;100325.22;5028998;28;20045;-70
2024/03/21 06:01:54;;;;;;;20.35;14.95;;;;;;;7.40;100.00;100309.59;5028445;28;20021;-74
2024/03/21 06:04:21;;;;;;;17.98;13.98;;;;;;;7.45;100.00;100264.84;5029477;28;20040;-69
2024/03/21 06:06:46;;;;;;;21.05;15.02;;;;;;;7.70;100.00;100240.97;5028937;28;20033;-70
2024/03/21 06:09:12;;;;;;;17.40;13.63;;;;;;;7.24;100.00;100015.63;5028718;28;20033;-72
2024/03/21 06:11:38;;;;;;;23.00;16.80;;;;;;;7.48;100.00;100285.91;5028789;28;20494;-70
2024/03/21 06:14:05;;;;;;;23.60;14.88;;;;;;;7.86;100.00;100232.31;5010153;28;20025;-71
2024/03/21 06:16:30;;;;;;;20.48;15.20;;;;;;;7.84;100.00;100239.91;5027733;28;20029;-72
2024/03/21 06:18:56;;;;;;;19.08;14.95;;;;;;;7.90;100.00;100246.63;5028902;28;20057;-70
2024/03/21 06:21:22;;;;;;;20.88;15.07;;;;;;;8.53;100.00;100159.59;5029006;28;20030;-70
2024/03/21 06:23:58;;;;;;;21.13;15.50;;;;;;;7.08;100.00;100173.41;5011107;28;20084;-70
2024/03/21 06:26:23;;;;;;;18.40;14.07;;;;;;;7.51;100.00;100274.88;5009417;28;20397;-70
2024/03/21 06:28:49;;;;;;;20.42;15.63;;;;;;;7.22;100.00;100103.28;5028796;28;20103;-70
2024/03/21 06:31:14;;;;;;;18.33;14.43;;;;;;;7.39;100.00;100022.97;5029088;28;20051;-70
2024/03/21 06:33:39;;;;;;;19.27;14.30;;;;;;;8.34;100.00;100185.25;5028858;28;20025;-70
2024/03/21 06:36:05;;;;;;;19.17;14.75;;;;;;;9.85;100.00;100091.78;5011294;28;20029;-69
2024/03/21 06:38:30;;;;;;;20.38;15.82;;;;;;;9.49;100.00;100143.38;5028979;28;20084;-69
2024/03/21 06:40:56;;;;;;;19.42;14.18;;;;;;;8.04;100.00;100213.50;5028798;28;20034;-70
2024/03/21 06:43:21;;;;;;;20.17;15.10;;;;;;;9.32;100.00;100165.72;5011687;28;20057;-70
2024/03/21 06:45:54;;;;;;;18.70;13.75;;;;;;;7.86;100.00;100110.84;5010953;28;20049;-70
2024/03/21 06:48:19;;;;;;;18.55;15.00;;;;;;;9.54;100.00;100068.00;5010435;28;20486;-70
2024/03/21 06:50:45;;;;;;;22.48;16.92;;;;;;;9.43;100.00;100164.63;5010541;28;20056;-71
2024/03/21 06:53:10;;;;;;;20.30;15.05;;;;;;;10.01;100.00;100112.59;5010544;28;20484;-70
2024/03/21 06:55:39;;;;;;;55.90;27.13;;;;;;;9.67;100.00;100126.91;4994759;28;20120;-70
2024/03/21 06:58:04;;;;;;;24.38;15.48;;;;;;;10.79;100.00;99992.81;4989111;28;20404;-70
2024/03/21 07:00:32;;;;;;;18.65;15.35;;;;;;;9.25;100.00;100103.31;4989104;28;20092;-70
2024/03/21 07:02:58;;;;;;;20.63;15.23;;;;;;;10.96;100.00;99971.09;5004038;28;20061;-70
2024/03/21 07:05:24;;;;;;;16.20;13.77;;;;;;;9.57;100.00;100065.38;4988892;28;20030;-70
2024/03/21 07:07:50;;;;;;;18.13;13.35;;;;;;;9.49;100.00;100255.88;4988544;28;20113;-70
2024/03/21 07:10:15;;;;;;;18.63;15.55;;;;;;;10.04;100.00;100057.47;4989448;28;20030;-72
2024/03/21 07:12:41;;;;;;;17.08;14.20;;;;;;;11.12;100.00;100129.22;4989094;28;20073;-70
2024/03/21 07:15:07;;;;;;;18.42;14.75;;;;;;;11.45;100.00;99928.88;4987646;28;20030;-70
2024/03/21 07:17:33;;;;;;;20.42;14.93;;;;;;;11.84;100.00;100116.94;4988693;28;20030;-70
2024/03/21 07:19:58;;;;;;;18.73;14.82;;;;;;;11.01;100.00;100248.25;4988898;28;20493;-70
2024/03/21 07:22:24;;;;;;;23.30;16.92;;;;;;;9.98;100.00;100341.25;4989087;28;20030;-70
2024/03/21 07:24:50;;;;;;;17.75;13.43;;;;;;;9.00;100.00;100331.16;4989028;28;20030;-70
2024/03/21 07:27:17;;;;;;;17.75;13.30;;;;;;;11.73;100.00;100154.59;4988928;28;20497;-70
2024/03/21 07:29:43;;;;;;;17.55;13.68;;;;;;;10.85;100.00;100232.53;4988590;28;20030;-70
2024/03/21 07:32:08;;;;;;;22.85;14.32;;;;;;;11.18;100.00;100200.28;4988209;28;20030;-69
2024/03/21 07:34:35;;;;;;;18.08;13.52;;;;;;;12.18;100.00;100139.63;4987129;28;20038;-69
2024/03/21 07:37:00;;;;;;;14.90;12.00;;;;;;;12.06;100.00;100191.78;4988402;28;20026;-69
2024/03/21 07:39:26;;;;;;;14.68;11.82;;;;;;;11.25;100.00;100291.69;4988838;28;20594;-70
2024/03/21 07:41:52;;;;;;;14.48;12.05;;;;;;;10.52;100.00;100257.94;4989357;28;20799;-69
2024/03/21 07:44:18;;;;;;;15.90;12.73;;;;;;;11.50;100.00;100324.16;4989409;28;20034;-69
2024/03/21 07:46:44;;;;;;;15.05;12.93;;;;;;;12.20;100.00;100122.59;4991766;28;20065;-70
2024/03/21 07:49:10;;;;;;;15.60;12.10;;;;;;;12.52;100.00;100288.09;4993769;28;20034;-74
2024/03/21 07:51:36;;;;;;;16.08;12.43;;;;;;;12.27;100.00;100226.00;4988598;28;20030;-70
2024/03/21 07:54:02;;;;;;;15.57;12.23;;;;;;;12.75;100.00;100407.28;4988891;28;20053;-69
2024/03/21 07:56:28;;;;;;;14.68;11.98;;;;;;;12.28;100.00;100321.16;5025046;28;20084;-70
2024/03/21 07:58:54;;;;;;;16.88;11.25;;;;;;;11.70;100.00;100386.47;5028135;28;20073;-70
2024/03/21 08:01:19;;;;;;;16.25;12.23;;;;;;;12.85;100.00;100421.44;5027335;28;20033;-71
2024/03/21 08:03:45;;;;;;;16.00;11.88;;;;;;;11.47;100.00;100460.00;5027017;28;20087;-70
2024/03/21 08:06:11;;;;;;;17.13;13.10;;;;;;;11.18;100.00;100435.25;5027568;28;20043;-70
2024/03/21 08:08:36;;;;;;;14.85;11.18;;;;;;;13.27;100.00;100317.19;5027308;28;20029;-71
2024/03/21 08:11:02;;;;;;;16.40;12.32;;;;;;;13.86;100.00;100191.53;5026685;28;20033;-70
2024/03/21 08:13:27;;;;;;;13.07;11.43;;;;;;;13.12;100.00;100425.72;5025596;28;20403;-71
2024/03/21 08:15:55;;;;;;;18.13;13.93;;;;;;;11.83;100.00;100482.06;5007576;28;20048;-70
2024/03/21 08:18:21;;;;;;;14.63;11.18;;;;;;;12.76;100.00;100444.66;5009594;28;20063;-69
2024/03/21 08:20:47;;;;;;;16.92;12.10;;;;;;;13.93;100.00;100356.56;5027227;28;20105;-70
2024/03/21 08:23:14;;;;;;;14.40;12.45;;;;;;;13.22;100.00;100136.06;5026464;28;20132;-71
2024/03/21 08:25:39;;;;;;;13.95;11.73;;;;;;;14.83;100.00;100338.69;5028020;28;20458;-76
2024/03/21 08:28:04;;;;;;;15.15;11.15;;;;;;;15.15;100.00;100342.53;5009171;28;20029;-71
2024/03/21 08:30:30;;;;;;;16.42;12.25;;;;;;;14.13;100.00;100500.75;5027332;28;20041;-70
2024/03/21 08:32:55;;;;;;;12.35;8.98;;;;;;;12.79;100.00;100362.94;5027299;28;20032;-71
2024/03/21 08:35:21;;;;;;;12.45;9.98;;;;;;;14.29;100.00;100499.38;5026277;28;20030;-70
2024/03/21 08:37:46;;;;;;;12.63;8.82;;;;;;;12.92;100.00;100721.50;5027373;28;20039;-71
2024/03/21 08:40:13;;;;;;;13.00;9.68;;;;;;;13.83;100.00;100253.00;5026196;28;20543;-71
2024/03/21 08:42:40;;;;;;;11.63;9.05;;;;;;;13.93;100.00;100655.66;5026870;28;20033;-70
2024/03/21 08:45:09;;;;;;;14.48;9.65;;;;;;;14.44;100.00;100481.75;5027419;28;20037;-70
2024/03/21 08:47:35;;;;;;;11.75;10.30;;;;;;;13.24;100.00;100595.59;5029583;28;20035;-70
2024/03/21 08:50:00;;;;;;;11.68;9.10;;;;;;;14.26;100.00;100476.44;5031385;28;20406;-70
2024/03/21 08:52:25;;;;;;;15.93;10.52;;;;;;;14.95;100.00;100566.09;5031236;28;20554;-72
2024/03/21 08:54:51;;;;;;;12.10;9.93;;;;;;;14.76;100.00;100624.78;5031043;28;20056;-70
2024/03/21 08:57:16;;;;;;;9.70;8.00;;;;;;;15.48;100.00;100482.94;5012782;28;20045;-71
2024/03/21 08:59:42;;;;;;;14.20;8.25;;;;;;;16.15;100.00;100375.81;5030080;28;20033;-78
2024/03/21 09:02:07;;;;;;;15.38;9.50;;;;;;;16.47;100.00;100530.94;5030366;28;20029;-71
2024/03/21 09:04:33;;;;;;;8.82;7.55;;;;;;;15.56;100.00;100634.69;5030835;28;20403;-71
2024/03/21 09:06:58;;;;;;;9.30;7.97;;;;;;;15.28;100.00;100551.19;5030466;28;20124;-71
2024/03/21 09:09:24;;;;;;;12.43;9.38;;;;;;;15.26;100.00;100696.44;5012474;28;20051;-76
2024/03/21 09:11:49;;;;;;;13.32;9.40;;;;;;;16.33;100.00;100559.75;5030718;28;20092;-70
2024/03/21 09:14:15;;;;;;;9.98;7.55;;;;;;;16.93;100.00;100519.50;5030420;28;20537;-70
2024/03/21 09:16:40;;;;;;;10.93;7.25;;;;;;;17.18;100.00;100544.00;5030105;28;20034;-71
2024/03/21 09:19:06;;;;;;;9.32;7.32;;;;;;;16.70;100.00;100427.25;5029225;28;20051;-71
2024/03/21 09:21:31;;;;;;;8.85;7.18;;;;;;;15.97;100.00;100563.84;5030423;28;20029;-71
2024/03/21 09:23:57;;;;;;;12.52;8.55;;;;;;;15.75;100.00;100734.81;5030035;28;20484;-71
2024/03/21 09:26:23;;;;;;;9.23;6.60;;;;;;;15.76;100.00;100710.84;5029811;28;20045;-74
2024/03/21 09:28:48;;;;;;;10.50;6.55;;;;;;;15.64;100.00;100680.53;5011273;28;20064;-71
2024/03/21 09:31:13;;;;;;;10.48;6.05;;;;;;;17.10;100.00;100568.38;5031014;28;20061;-70
2024/03/21 09:33:39;;;;;;;11.02;6.82;;;;;;;16.93;100.00;100440.69;5029898;28;20038;-71
2024/03/21 09:36:08;;;;;;;10.48;6.30;;;;;;;16.97;100.00;100444.78;5030019;28;20155;-72
2024/03/21 09:38:34;;;;;;;7.57;5.97;;;;;;;17.79;100.00;100464.78;5029629;28;20057;-73
2024/03/21 09:41:00;;;;;;;11.25;6.53;;;;;;;16.06;100.00;100721.69;5012384;28;20069;-71
2024/03/21 09:43:26;;;;;;;8.77;6.05;;;;;;;16.51;100.00;100634.34;5029374;28;20568;-71
2024/03/21 09:45:53;;;;;;;7.95;6.15;;;;;;;15.65;100.00;100607.84;5029503;28;20033;-71
2024/03/21 09:48:18;;;;;;;8.15;5.68;;;;;;;15.66;100.00;100624.91;5012285;28;20030;-70
2024/03/21 09:50:46;;;;;;;7.22;5.57;;;;;;;17.35;100.00;100451.50;5029604;28;20022;-71
2024/03/21 09:53:14;;;;;;;9.35;5.80;;;;;;;17.10;100.00;100358.50;5028781;28;20030;-71
2024/03/21 09:55:41;;;;;;;6.43;5.20;;;;;;;16.58;100.00;100635.78;5029234;28;20067;-71
2024/03/21 09:58:14;;;;;;;14.00;6.10;;;;;;;16.95;100.00;100480.00;5029319;28;20029;-71
2024/03/21 10:00:41;;;;;;;7.20;5.22;;;;;;;17.00;100.00;100495.19;5028844;28;20044;-71
2024/03/21 10:03:13;;;;;;;9.07;5.18;;;;;;;17.09;100.00;100490.44;5030025;28;20415;-77
2024/03/21 10:05:39;;;;;;;;;;;;;;;18.87;100.00;100418.78;5029564;28;20029;-71
2024/03/21 10:08:05;;;;;;;6.60;5.50;;;;;;;17.19;100.00;100566.22;5015921;28;19921;-71
2024/03/21 10:10:30;;;;;;;7.25;5.30;;;;;;;17.35;100.00;100545.81;5029529;28;20052;-70
2024/03/21 10:12:56;;;;;;;8.25;5.57;;;;;;;15.49;100.00;100611.91;5029418;28;20480;-71
2024/03/21 10:15:22;;;;;;;7.18;5.45;;;;;;;16.50;100.00;100656.59;5029100;28;20068;-71
2024/03/21 10:17:47;;;;;;;9.35;5.88;;;;;;;16.59;100.00;100642.56;5029388;28;20029;-72
2024/03/21 10:20:13;;;;;;;8.75;5.90;;;;;;;17.42;100.00;100551.47;5011607;28;20095;-71
2024/03/21 10:22:45;;;;;;;11.80;6.35;;;;;;;18.07;100.00;100490.81;5029081;28;20480;-76
2024/03/21 10:25:14;;;;;;;13.60;10.13;;;;;;;18.16;100.00;100320.47;5028847;28;20025;-71
2024/03/21 10:27:41;;;;;;;8.02;5.90;;;;;;;19.10;100.00;100278.28;4678579;28;9999827;-72
2024/03/21 10:30:18;;;;;;;11.32;6.63;;;;;;;18.70;100.00;100408.53;5006085;28;20037;-72
2024/03/21 10:32:45;;;;;;;8.05;5.95;;;;;;;16.78;100.00;100613.47;5022675;28;20037;-73
2024/03/21 10:35:16;;;;;;;9.50;5.70;;;;;;;16.64;100.00;100654.28;5008481;28;20121;-72
2024/03/21 10:37:43;;;;;;;9.80;6.05;;;;;;;15.78;100.00;100621.88;5008368;28;20099;-73
2024/03/21 10:40:13;;;;;;;8.50;5.85;;;;;;;15.53;100.00;100518.63;5025696;28;20030;-70
2024/03/21 10:42:52;;;;;;;12.38;6.35;;;;;;;14.97;100.00;100513.09;5008283;28;20044;-72
2024/03/21 10:45:18;;;;;;;6.07;5.18;;;;;;;15.80;100.00;100558.56;5024447;28;20396;-70
2024/03/21 10:47:51;;;;;;;9.77;6.00;;;;;;;15.70;100.00;100551.28;5026960;28;20128;-71
2024/03/21 10:50:22;;;;;;;9.50;5.78;;;;;;;16.09;100.00;100508.63;5027371;28;20403;-76
2024/03/21 10:52:52;;;;;;;6.97;5.10;;;;;;;16.07;100.00;100456.53;5026962;28;20029;-71
2024/03/21 10:55:21;;;;;;;8.70;5.90;;;;;;;15.95;100.00;100532.28;5009704;28;20041;-72
2024/03/21 10:57:56;;;;;;;11.10;6.18;;;;;;;16.86;100.00;100583.13;5027921;28;20033;-72
2024/03/21 11:00:23;;;;;;;12.48;5.40;;;;;;;18.14;100.00;100432.94;5027130;28;20033;-71
2024/03/21 11:02:52;;;;;;;7.65;4.75;;;;;;;17.31;100.00;100501.38;5028808;28;21796;-72
2024/03/21 11:05:19;;;;;;;7.43;4.40;;;;;;;17.32;100.00;100454.22;5027185;28;20113;-71